createdAt,value
2023-04-16T00:01:50.451Z,9.15
2023-04-16T00:04:17.226Z,8.60
2023-04-16T00:06:43.923Z,9.20
2023-04-16T00:09:10.762Z,8.10
2023-04-16T00:11:37.521Z,7.57
2023-04-16T00:14:04.742Z,9.50
2023-04-16T00:16:31.533Z,9.02
2023-04-16T00:18:58.254Z,8.23
2023-04-16T00:21:24.882Z,8.60
2023-04-16T00:23:51.533Z,8.40
2023-04-16T00:26:18.138Z,8.60
2023-04-16T00:28:44.787Z,8.68
2023-04-16T00:31:11.475Z,7.95
2023-04-16T00:33:38.110Z,8.57
2023-04-16T00:36:06.015Z,9.00
2023-04-16T00:38:32.792Z,8.35
2023-04-16T00:40:59.624Z,8.90
2023-04-16T00:43:26.902Z,8.52
2023-04-16T00:45:56.634Z,8.32
2023-04-16T00:48:23.632Z,8.68
2023-04-16T00:50:50.362Z,7.70
2023-04-16T00:53:17.044Z,8.15
2023-04-16T00:55:44.481Z,8.27
2023-04-16T00:58:11.498Z,7.85
2023-04-16T01:00:38.118Z,8.38
2023-04-16T01:03:05.520Z,8.45
2023-04-16T01:05:32.342Z,8.35
2023-04-16T01:08:00.740Z,8.45
2023-04-16T01:10:27.456Z,8.35
2023-04-16T01:12:54.141Z,8.65
2023-04-16T01:15:20.778Z,9.48
2023-04-16T01:17:47.592Z,9.35
2023-04-16T01:20:14.500Z,8.57
2023-04-16T01:22:41.149Z,10.07
2023-04-16T01:25:07.932Z,8.30
2023-04-16T01:27:34.616Z,8.98
2023-04-16T01:30:01.237Z,9.02
2023-04-16T01:32:27.963Z,7.70
2023-04-16T01:34:54.663Z,10.07
2023-04-16T01:37:21.308Z,10.13
2023-04-16T01:39:47.953Z,9.10
2023-04-16T01:42:14.593Z,9.23
2023-04-16T01:44:41.211Z,9.35
2023-04-16T01:47:08.435Z,9.15
2023-04-16T01:49:35.931Z,8.45
2023-04-16T01:52:02.532Z,9.05
2023-04-16T01:54:29.165Z,9.38
2023-04-16T01:56:55.858Z,9.30
2023-04-16T01:59:22.514Z,9.55
2023-04-16T02:01:49.268Z,9.25
2023-04-16T02:04:16.257Z,8.75
2023-04-16T02:06:42.935Z,9.57
2023-04-16T02:09:09.763Z,10.27
2023-04-16T02:11:36.587Z,10.93
2023-04-16T02:14:03.256Z,9.13
2023-04-16T02:16:29.940Z,8.60
2023-04-16T02:18:56.588Z,9.80
2023-04-16T02:21:23.236Z,8.57
2023-04-16T02:23:51.654Z,9.45
2023-04-16T02:26:18.510Z,10.30
2023-04-16T02:28:45.170Z,10.02
2023-04-16T02:31:11.791Z,9.68
2023-04-16T02:33:38.485Z,10.10
2023-04-16T02:36:05.472Z,10.25
2023-04-16T02:38:32.122Z,10.70
2023-04-16T02:40:59.349Z,10.48
2023-04-16T02:43:25.996Z,9.57
2023-04-16T02:45:52.674Z,9.50
2023-04-16T02:48:19.438Z,9.52
2023-04-16T02:50:46.096Z,10.93
2023-04-16T02:53:12.785Z,11.27
2023-04-16T02:55:39.441Z,9.90
2023-04-16T02:58:06.054Z,9.52
2023-04-16T03:00:32.655Z,10.90
2023-04-16T03:02:59.343Z,11.57
2023-04-16T03:05:26.035Z,9.95
2023-04-16T03:07:56.537Z,10.50
2023-04-16T03:10:24.090Z,9.73
2023-04-16T03:12:50.911Z,11.43
2023-04-16T03:15:17.679Z,9.93
2023-04-16T03:17:44.391Z,10.07
2023-04-16T03:20:11.439Z,9.65
2023-04-16T03:22:39.349Z,9.57
2023-04-16T03:25:07.266Z,9.95
2023-04-16T03:27:34.735Z,11.27
2023-04-16T03:30:01.927Z,9.75
2023-04-16T03:32:28.693Z,10.82
2023-04-16T03:34:55.316Z,10.27
2023-04-16T03:37:21.978Z,10.55
2023-04-16T03:39:48.620Z,10.20
2023-04-16T03:42:15.383Z,10.98
2023-04-16T03:44:42.156Z,10.20
2023-04-16T03:47:08.832Z,10.85
2023-04-16T03:49:35.463Z,10.23
2023-04-16T03:52:02.762Z,10.57
2023-04-16T03:54:29.442Z,10.10
2023-04-16T03:56:57.025Z,10.32
2023-04-16T03:59:23.690Z,9.95
2023-04-16T04:01:50.780Z,11.07
2023-04-16T04:04:17.648Z,10.55
2023-04-16T04:06:46.361Z,10.48
2023-04-16T04:09:13.687Z,10.70
2023-04-16T04:11:40.340Z,9.65
2023-04-16T04:14:07.048Z,10.73
2023-04-16T04:16:33.852Z,10.48
2023-04-16T04:19:01.036Z,10.20
2023-04-16T04:21:28.788Z,10.35
2023-04-16T04:23:56.117Z,9.57
2023-04-16T04:26:22.877Z,11.40
2023-04-16T04:28:49.974Z,9.90
2023-04-16T04:31:16.597Z,10.43
2023-04-16T04:33:43.252Z,9.73
2023-04-16T04:36:09.880Z,10.77
2023-04-16T04:38:36.576Z,10.00
2023-04-16T04:41:03.216Z,10.82
2023-04-16T04:43:29.843Z,10.45
2023-04-16T04:45:56.502Z,10.93
2023-04-16T04:48:26.550Z,10.70
2023-04-16T04:50:53.836Z,12.18
2023-04-16T04:53:20.686Z,11.88
2023-04-16T04:55:50.929Z,10.25
2023-04-16T04:58:19.706Z,10.85
2023-04-16T05:00:46.348Z,10.90
2023-04-16T05:03:13.182Z,10.23
2023-04-16T05:05:41.086Z,10.48
2023-04-16T05:08:07.707Z,10.68
2023-04-16T05:10:34.275Z,10.25
2023-04-16T05:13:01.080Z,11.07
2023-04-16T05:15:27.837Z,10.98
2023-04-16T05:17:56.170Z,10.75
2023-04-16T05:20:25.973Z,10.57
2023-04-16T05:22:52.662Z,10.45
2023-04-16T05:25:19.331Z,9.80
2023-04-16T05:27:45.996Z,10.90
2023-04-16T05:30:12.774Z,11.48
2023-04-16T05:32:41.003Z,10.70
2023-04-16T05:35:08.005Z,10.68
2023-04-16T05:37:34.658Z,9.98
2023-04-16T05:40:01.342Z,11.25
2023-04-16T05:42:28.048Z,10.13
2023-04-16T05:44:54.772Z,10.63
2023-04-16T05:47:21.470Z,10.00
2023-04-16T05:49:48.136Z,10.02
2023-04-16T05:52:15.303Z,10.35
2023-04-16T05:54:41.956Z,10.88
2023-04-16T05:57:08.595Z,10.05
2023-04-16T05:59:35.245Z,10.60
2023-04-16T06:02:01.930Z,11.30
2023-04-16T06:04:29.955Z,9.68
2023-04-16T06:06:56.793Z,11.38
2023-04-16T06:09:23.435Z,11.35
2023-04-16T06:11:50.099Z,12.05
2023-04-16T06:14:16.852Z,11.55
2023-04-16T06:16:43.475Z,11.60
2023-04-16T06:19:10.432Z,11.02
2023-04-16T06:21:37.962Z,10.85
2023-04-16T06:24:04.739Z,11.57
2023-04-16T06:26:31.382Z,12.45
2023-04-16T06:28:57.983Z,12.70
2023-04-16T06:31:24.752Z,12.20
2023-04-16T06:33:51.373Z,12.45
2023-04-16T06:36:18.017Z,10.88
2023-04-16T06:38:44.712Z,12.18
2023-04-16T06:41:11.352Z,11.65
2023-04-16T06:43:38.036Z,11.77
2023-04-16T06:46:04.720Z,11.90
2023-04-16T06:48:31.626Z,12.27
2023-04-16T06:50:58.298Z,11.23
2023-04-16T06:53:24.944Z,10.95
2023-04-16T06:55:51.823Z,12.13
2023-04-16T06:58:18.439Z,11.45
2023-04-16T07:00:45.444Z,12.07
2023-04-16T07:03:12.465Z,11.50
2023-04-16T07:05:39.289Z,10.90
2023-04-16T07:08:06.009Z,11.35
2023-04-16T07:10:32.637Z,12.18
2023-04-16T07:13:01.467Z,12.43
2023-04-16T07:15:28.322Z,14.13
2023-04-16T07:17:55.125Z,12.93
2023-04-16T07:20:21.829Z,12.43
2023-04-16T07:22:48.527Z,12.35
2023-04-16T07:25:15.283Z,12.15
2023-04-16T07:27:41.899Z,11.75
2023-04-16T07:30:09.221Z,13.05
2023-04-16T07:32:36.165Z,12.10
2023-04-16T07:35:03.794Z,13.10
2023-04-16T07:37:30.901Z,11.70
2023-04-16T07:39:57.778Z,10.25
2023-04-16T07:42:24.474Z,10.52
2023-04-16T07:44:51.140Z,10.43
2023-04-16T07:47:17.815Z,9.57
2023-04-16T07:49:44.477Z,10.30
2023-04-16T07:52:11.113Z,10.32
2023-04-16T07:54:37.734Z,10.25
2023-04-16T07:57:04.309Z,9.95
2023-04-16T07:59:31.152Z,9.73
2023-04-16T08:01:57.972Z,9.10
2023-04-16T08:04:25.738Z,9.98
2023-04-16T08:06:54.140Z,9.43
2023-04-16T08:09:22.341Z,10.00
2023-04-16T08:11:49.794Z,10.35
2023-04-16T08:14:17.526Z,9.20
2023-04-16T08:16:44.558Z,9.65
2023-04-16T08:19:11.345Z,9.20
2023-04-16T08:21:38.159Z,8.30
2023-04-16T08:24:04.885Z,9.05
2023-04-16T08:26:31.518Z,9.05
2023-04-16T08:28:58.159Z,8.77
2023-04-16T08:31:24.936Z,9.05
2023-04-16T08:33:51.611Z,10.27
2023-04-16T08:36:18.298Z,9.73
2023-04-16T08:38:44.963Z,10.40
2023-04-16T08:41:13.174Z,10.35
2023-04-16T08:43:44.932Z,10.27
2023-04-16T08:46:12.554Z,10.40
2023-04-16T08:48:41.881Z,9.70
2023-04-16T08:51:10.832Z,10.45
2023-04-16T08:53:49.174Z,10.43
2023-04-16T08:56:18.096Z,11.15
2023-04-16T08:58:47.499Z,11.68
2023-04-16T09:01:15.261Z,11.13
2023-04-16T09:03:42.331Z,11.40
2023-04-16T09:06:10.044Z,9.85
2023-04-16T09:08:38.068Z,11.75
2023-04-16T09:11:05.384Z,11.25
2023-04-16T09:13:32.362Z,11.80
2023-04-16T09:16:00.205Z,10.80
2023-04-16T09:18:28.082Z,11.63
2023-04-16T09:20:56.321Z,11.05
2023-04-16T09:23:23.211Z,10.65
2023-04-16T09:25:49.828Z,11.00
2023-04-16T09:28:38.566Z,10.85
2023-04-16T09:31:16.834Z,11.85
2023-04-16T09:34:00.400Z,12.00
2023-04-16T09:36:27.832Z,12.38
2023-04-16T09:38:57.405Z,10.98
2023-04-16T09:41:29.512Z,11.05
2023-04-16T09:44:01.810Z,10.55
2023-04-16T09:46:35.119Z,11.73
2023-04-16T09:49:14.748Z,11.85
2023-04-16T09:51:42.914Z,11.07
2023-04-16T09:54:09.887Z,11.52
2023-04-16T09:56:57.007Z,11.95
2023-04-16T09:59:24.436Z,11.00
2023-04-16T10:01:53.421Z,11.13
2023-04-16T10:04:48.314Z,11.10
2023-04-16T10:07:15.251Z,10.88
2023-04-16T10:09:42.002Z,10.55
2023-04-16T10:12:09.450Z,10.27
2023-04-16T10:14:36.249Z,10.75
2023-04-16T10:17:06.032Z,11.13
2023-04-16T10:19:33.757Z,11.65
2023-04-16T10:22:01.019Z,11.25
2023-04-16T10:24:29.533Z,11.07
2023-04-16T10:26:57.041Z,11.68
2023-04-16T10:29:25.341Z,9.70
2023-04-16T10:31:53.269Z,12.13
2023-04-16T10:34:21.340Z,11.15
2023-04-16T10:36:52.921Z,11.00
2023-04-16T10:39:24.507Z,12.20
2023-04-16T10:42:06.119Z,11.90
2023-04-16T10:44:33.298Z,11.73
2023-04-16T10:46:59.952Z,11.50
2023-04-16T10:49:27.140Z,11.75
2023-04-16T10:52:07.343Z,11.35
2023-04-16T10:54:36.328Z,11.50
2023-04-16T10:57:14.877Z,10.60
2023-04-16T10:59:43.367Z,10.93
2023-04-16T11:02:19.557Z,10.57
2023-04-16T11:04:48.463Z,10.80
2023-04-16T11:07:19.689Z,11.60
2023-04-16T11:09:56.517Z,11.02
2023-04-16T11:12:27.623Z,11.10
2023-04-16T11:15:03.231Z,12.05
2023-04-16T11:17:39.101Z,11.40
2023-04-16T11:20:19.542Z,11.27
2023-04-16T11:22:48.698Z,12.45
2023-04-16T11:25:29.786Z,11.18
2023-04-16T11:27:59.070Z,12.52
2023-04-16T11:30:34.525Z,12.98
2023-04-16T11:33:19.114Z,12.52
2023-04-16T11:35:55.987Z,12.68
2023-04-16T11:38:33.759Z,12.73
2023-04-16T11:41:00.438Z,11.88
2023-04-16T11:43:27.076Z,12.20
2023-04-16T11:46:10.258Z,13.57
2023-04-16T11:48:53.751Z,12.32
2023-04-16T11:51:21.738Z,12.45
2023-04-16T11:53:50.886Z,13.70
2023-04-16T11:56:26.121Z,13.25
2023-04-16T11:59:22.971Z,12.57
2023-04-16T12:01:50.940Z,13.65
2023-04-16T12:04:20.816Z,13.60
2023-04-16T12:07:11.824Z,14.43
2023-04-16T12:09:43.030Z,13.55
2023-04-16T12:12:30.885Z,14.07
2023-04-16T12:15:00.049Z,12.55
2023-04-16T12:17:26.844Z,13.38
2023-04-16T12:19:57.306Z,13.25
2023-04-16T12:22:38.944Z,12.65
2023-04-16T12:25:13.973Z,13.18
2023-04-16T12:27:43.535Z,13.23
2023-04-16T12:30:10.614Z,14.05
2023-04-16T12:32:37.412Z,13.73
2023-04-16T12:35:05.218Z,12.80
2023-04-16T12:37:32.106Z,13.85
2023-04-16T12:39:58.704Z,14.23
2023-04-16T12:42:25.370Z,12.68
2023-04-16T12:44:51.972Z,13.60
2023-04-16T12:47:18.819Z,14.55
2023-04-16T12:49:45.703Z,13.82
2023-04-16T12:52:12.372Z,14.57
2023-04-16T12:54:39.103Z,15.38
2023-04-16T12:57:05.859Z,14.88
2023-04-16T12:59:32.500Z,15.23
2023-04-16T13:02:01.769Z,15.82
2023-04-16T13:04:28.638Z,14.55
2023-04-16T13:06:55.392Z,15.82
2023-04-16T13:09:22.043Z,15.45
2023-04-16T13:11:48.675Z,14.57
2023-04-16T13:14:15.270Z,15.93
2023-04-16T13:16:41.899Z,14.40
2023-04-16T13:19:08.678Z,14.93
2023-04-16T13:21:35.882Z,14.82
2023-04-16T13:24:02.593Z,15.13
2023-04-16T13:26:29.222Z,15.27
2023-04-16T13:28:55.900Z,16.00
2023-04-16T13:31:22.774Z,13.88
2023-04-16T13:33:50.634Z,13.75
2023-04-16T13:36:17.272Z,14.30
2023-04-16T13:38:43.910Z,15.10
2023-04-16T13:41:10.622Z,15.10
2023-04-16T13:43:37.703Z,15.88
2023-04-16T13:46:04.462Z,13.73
2023-04-16T13:48:31.139Z,14.25
2023-04-16T13:50:57.738Z,13.15
2023-04-16T13:53:24.372Z,12.90
2023-04-16T13:55:50.991Z,14.45
2023-04-16T13:58:17.643Z,14.30
2023-04-16T14:00:44.401Z,14.20
2023-04-16T14:03:11.255Z,15.35
2023-04-16T14:05:38.025Z,13.85
2023-04-16T14:08:04.701Z,12.90
2023-04-16T14:10:32.509Z,13.60
2023-04-16T14:12:59.296Z,12.45
2023-04-16T14:15:27.418Z,13.15
2023-04-16T14:17:54.197Z,13.95
2023-04-16T14:20:21.188Z,12.95
2023-04-16T14:22:47.902Z,12.15
2023-04-16T14:25:14.552Z,13.20
2023-04-16T14:27:41.488Z,13.13
2023-04-16T14:30:08.673Z,13.13
2023-04-16T14:32:36.226Z,12.65
2023-04-16T14:35:03.571Z,12.93
2023-04-16T14:37:31.035Z,12.38
2023-04-16T14:39:57.684Z,13.50
2023-04-16T14:42:24.307Z,12.65
2023-04-16T14:44:52.030Z,11.98
2023-04-16T14:47:18.653Z,13.15
2023-04-16T14:49:45.633Z,11.95
2023-04-16T14:52:12.483Z,12.50
2023-04-16T14:54:39.170Z,14.00
2023-04-16T14:57:05.943Z,13.90
2023-04-16T14:59:32.761Z,12.73
2023-04-16T15:01:59.724Z,12.60
2023-04-16T15:04:26.595Z,11.45
2023-04-16T15:09:22.020Z,12.13
2023-04-16T15:11:48.629Z,12.40
2023-04-16T15:14:15.345Z,12.00
2023-04-16T15:16:42.086Z,12.60
2023-04-16T15:19:09.166Z,12.57
2023-04-16T15:21:35.974Z,12.35
2023-04-16T15:24:02.943Z,14.05
2023-04-16T15:26:30.294Z,13.68
2023-04-16T15:28:56.928Z,12.18
2023-04-16T15:31:23.637Z,12.25
2023-04-16T15:33:50.432Z,12.40
2023-04-16T15:36:17.132Z,11.90
2023-04-16T15:38:43.800Z,12.45
2023-04-16T15:41:10.860Z,13.85
2023-04-16T15:43:37.782Z,12.80
2023-04-16T15:46:04.603Z,12.50
2023-04-16T15:48:31.378Z,13.10
2023-04-16T15:50:58.077Z,11.68
2023-04-16T15:53:24.773Z,12.40
2023-04-16T15:55:53.570Z,11.52
2023-04-16T15:58:20.986Z,14.45
2023-04-16T16:00:49.856Z,11.82
2023-04-16T16:03:18.626Z,12.75
2023-04-16T16:05:48.838Z,13.68
2023-04-16T16:08:16.242Z,12.93
2023-04-16T16:10:43.108Z,12.27
2023-04-16T16:13:13.153Z,11.82
2023-04-16T16:15:43.470Z,11.65
2023-04-16T16:18:10.292Z,12.30
2023-04-16T16:20:37.105Z,13.65
2023-04-16T16:23:03.850Z,12.05
2023-04-16T16:25:30.587Z,11.88
2023-04-16T16:27:58.729Z,13.35
2023-04-16T16:30:26.291Z,11.40
2023-04-16T16:32:54.136Z,11.40
2023-04-16T16:35:20.836Z,12.77
2023-04-16T16:37:47.489Z,13.13
2023-04-16T16:40:14.199Z,12.25
2023-04-16T16:42:40.866Z,12.45
2023-04-16T16:45:08.170Z,12.95
2023-04-16T16:47:34.981Z,12.75
2023-04-16T16:50:03.332Z,12.35
2023-04-16T16:52:30.081Z,12.13
2023-04-16T16:54:56.849Z,12.82
2023-04-16T16:57:26.959Z,12.20
2023-04-16T16:59:54.550Z,12.57
2023-04-16T17:02:21.380Z,12.23
2023-04-16T17:04:48.032Z,12.43
2023-04-16T17:07:14.662Z,12.88
2023-04-16T17:09:41.296Z,11.88
2023-04-16T17:12:08.080Z,12.60
2023-04-16T17:14:35.501Z,11.77
2023-04-16T17:17:02.269Z,11.30
2023-04-16T17:19:28.967Z,11.77
2023-04-16T17:21:55.707Z,12.55
2023-04-16T17:24:22.381Z,12.73
2023-04-16T17:26:49.036Z,12.55
2023-04-16T17:29:15.744Z,11.00
2023-04-16T17:31:42.424Z,12.02
2023-04-16T17:34:09.113Z,11.50
2023-04-16T17:36:35.786Z,11.70
2023-04-16T17:39:02.616Z,11.57
2023-04-16T17:41:29.284Z,11.07
2023-04-16T17:43:55.949Z,9.75
2023-04-16T17:46:22.744Z,10.02
2023-04-16T17:48:49.461Z,9.55
2023-04-16T17:51:16.438Z,11.05
2023-04-16T17:53:43.551Z,8.90
2023-04-16T17:56:11.186Z,9.65
2023-04-16T17:58:37.907Z,10.30
2023-04-16T18:01:05.230Z,10.48
2023-04-16T18:03:33.213Z,10.20
2023-04-16T18:06:00.110Z,9.07
2023-04-16T18:08:27.364Z,10.45
2023-04-16T18:10:55.300Z,10.07
2023-04-16T18:13:22.226Z,9.30
2023-04-16T18:15:48.884Z,9.70
2023-04-16T18:18:15.580Z,9.32
2023-04-16T18:20:42.311Z,10.02
2023-04-16T18:23:08.998Z,10.57
2023-04-16T18:25:35.872Z,9.35
2023-04-16T18:28:03.887Z,10.00
2023-04-16T18:30:30.824Z,9.30
2023-04-16T18:35:27.104Z,9.70
2023-04-16T18:37:53.711Z,9.65
2023-04-16T18:40:20.439Z,10.27
2023-04-16T18:42:47.073Z,9.32
2023-04-16T18:45:19.617Z,10.18
2023-04-16T18:47:48.036Z,9.88
2023-04-16T18:50:14.665Z,10.35
2023-04-16T18:52:41.512Z,9.75
2023-04-16T18:55:08.545Z,10.48
2023-04-16T18:57:35.198Z,9.52
2023-04-16T19:00:05.467Z,10.13
2023-04-16T19:02:32.500Z,10.23
2023-04-16T19:04:59.161Z,9.27
2023-04-16T19:07:25.765Z,9.38
2023-04-16T19:09:52.395Z,10.10
2023-04-16T19:12:19.792Z,10.75
2023-04-16T19:14:46.406Z,10.50
2023-04-16T19:17:12.990Z,10.50
2023-04-16T19:19:39.583Z,9.73
2023-04-16T19:22:06.261Z,10.80
2023-04-16T19:24:34.227Z,12.27
2023-04-16T19:27:01.135Z,11.27
2023-04-16T19:29:27.893Z,10.20
2023-04-16T19:31:54.511Z,10.43
2023-04-16T19:34:21.126Z,11.38
2023-04-16T19:36:47.756Z,12.25
2023-04-16T19:39:14.390Z,11.48
2023-04-16T19:41:41.022Z,10.82
2023-04-16T19:44:07.786Z,11.40
2023-04-16T19:46:34.483Z,11.52
2023-04-16T19:49:01.086Z,12.15
2023-04-16T19:51:27.791Z,12.13
2023-04-16T19:53:54.485Z,11.23
2023-04-16T19:56:21.104Z,11.55
2023-04-16T19:58:47.774Z,11.15
2023-04-16T20:01:14.536Z,12.55
2023-04-16T20:03:41.298Z,11.55
2023-04-16T20:06:07.960Z,11.88
2023-04-16T20:08:34.723Z,12.13
2023-04-16T20:11:01.554Z,12.85
2023-04-16T20:13:28.220Z,13.50
2023-04-16T20:15:54.975Z,13.10
2023-04-16T20:18:22.131Z,13.15
2023-04-16T20:20:48.882Z,14.57
2023-04-16T20:23:15.638Z,14.27
2023-04-16T20:25:43.078Z,12.82
2023-04-16T20:28:10.071Z,13.50
2023-04-16T20:30:39.795Z,13.27
2023-04-16T20:33:07.128Z,13.07
2023-04-16T20:35:34.923Z,15.38
2023-04-16T20:38:01.539Z,13.50
2023-04-16T20:40:30.363Z,13.73
2023-04-16T20:43:00.398Z,13.75
2023-04-16T20:45:37.874Z,13.98
2023-04-16T20:48:05.452Z,14.40
2023-04-16T20:50:32.188Z,14.18
2023-04-16T20:52:58.839Z,15.77
2023-04-16T20:55:25.678Z,14.70
2023-04-16T20:57:52.330Z,14.43
2023-04-16T21:00:19.172Z,13.30
2023-04-16T21:02:45.932Z,15.32
2023-04-16T21:05:16.226Z,13.82
2023-04-16T21:07:43.042Z,13.63
2023-04-16T21:10:10.768Z,14.32
2023-04-16T21:12:37.507Z,14.82
2023-04-16T21:15:04.880Z,14.25
2023-04-16T21:17:31.764Z,14.80
2023-04-16T21:19:58.452Z,13.35
2023-04-16T21:22:25.331Z,13.65
2023-04-16T21:24:51.920Z,15.52
2023-04-16T21:27:18.581Z,15.00
2023-04-16T21:29:45.180Z,14.07
2023-04-16T21:32:11.867Z,14.30
2023-04-16T21:34:38.475Z,15.43
2023-04-16T21:37:05.548Z,14.88
2023-04-16T21:39:32.229Z,14.10
2023-04-16T21:41:58.866Z,16.48
2023-04-16T21:44:25.503Z,15.63
2023-04-16T21:46:52.205Z,13.88
2023-04-16T21:49:18.990Z,15.02
2023-04-16T21:51:46.203Z,14.32
2023-04-16T21:54:13.008Z,14.98
2023-04-16T21:56:39.630Z,15.80
2023-04-16T21:59:06.315Z,14.50
2023-04-16T22:01:33.105Z,14.00
2023-04-16T22:03:59.942Z,13.85
2023-04-16T22:06:27.136Z,14.23
2023-04-16T22:08:53.752Z,14.05
2023-04-16T22:11:20.705Z,13.05
2023-04-16T22:13:47.790Z,13.35
2023-04-16T22:16:15.464Z,13.35
2023-04-16T22:18:42.732Z,13.13
2023-04-16T22:21:09.383Z,12.07
2023-04-16T22:23:36.036Z,13.70
2023-04-16T22:26:04.065Z,13.30
2023-04-16T22:28:30.712Z,13.90
2023-04-16T22:30:57.348Z,12.80
2023-04-16T22:33:24.010Z,13.73
2023-04-16T22:35:50.672Z,14.25
2023-04-16T22:38:17.305Z,13.98
2023-04-16T22:40:46.660Z,13.30
2023-04-16T22:43:13.288Z,14.27
2023-04-16T22:45:41.011Z,12.88
2023-04-16T22:48:07.799Z,13.95
2023-04-16T22:50:34.436Z,13.90
2023-04-16T22:53:01.042Z,14.50
2023-04-16T22:55:27.682Z,13.55
2023-04-16T22:57:54.315Z,13.75
2023-04-16T23:00:21.207Z,13.10
2023-04-16T23:02:47.948Z,14.32
2023-04-16T23:05:14.713Z,14.32
2023-04-16T23:07:41.351Z,13.50
2023-04-16T23:10:08.666Z,13.75
2023-04-16T23:12:37.340Z,13.73
2023-04-16T23:15:06.253Z,14.38
2023-04-16T23:17:33.680Z,13.32
2023-04-16T23:20:00.596Z,14.32
2023-04-16T23:22:27.549Z,13.52
2023-04-16T23:24:54.204Z,15.23
2023-04-16T23:27:20.884Z,15.98
2023-04-16T23:29:47.468Z,14.68
2023-04-16T23:32:14.100Z,14.65
2023-04-16T23:34:41.638Z,14.82
2023-04-16T23:37:08.816Z,15.52
2023-04-16T23:39:35.528Z,14.45
2023-04-16T23:42:02.176Z,15.13
2023-04-16T23:44:28.960Z,14.68
2023-04-16T23:46:55.592Z,15.80
2023-04-16T23:49:22.258Z,15.90
2023-04-16T23:51:48.852Z,15.82
2023-04-16T23:54:15.545Z,15.48
2023-04-16T23:56:42.140Z,15.93
2023-04-16T23:59:10.979Z,15.20
